ZBAAZBTJ

Guest
Details From ZBAA - CAPITAL INTL
To ZBTJ - BINHAI
Flight Number -
Tags generated
Created
Modified
Stats Distance 69 nm / 129 km
Max Altitude 5,400 ft / 1,646 m
Waypoints 3
Social Downloads 12
Likes 0
Share VATSIM

Download

Looking for another format? Having issues loading an existing format? Contact us
Advertisement - Login to hide

Notes

Basic altitude profile: - Ascent Rate: 2500ft/min - Ascent Speed: 250kts - Cruise Altitude: 35000ft - Cruise Speed: 420kts - Descent Rate: 1500ft/min - Descent Speed: 250kts Options: - Use NATs: yes - Use PACOTS: yes - Use low airways: yes - Use high airways: yes

Route

ZBAA WFNB ZBTJ

ID Type Via Altitude (ft/m) Position (lat/lon) Dist (leg/tot) Name
O ZBAA APT - 0 / 0 40.08012 / 116.58456 - / 0 nm CAPITAL INTL
WFNB APT - 5,400 / 1,646 39.95000 / 116.86667 15 / 15 nm
O ZBTJ APT - 0 / 0 39.12435 / 117.34618 54 / 69 nm BINHAI

Altitude Profile

Advertisement - Login to hide

ZBAA

Details ICAO ZBAA (PEK)
Name Beijing-Capital
Region China
Timezone Asia/Shanghai (UTC+8.0)
Stats Elevation 116 ft / 35 m (AMSL)
Location 40.078700° 116.595000°
Runways 3
Magnetic Variation 7.054° W

METAR

ZBAA 211500Z VRB01MPS CAVOK 28/22 Q1001 NOSIG

Decode

TAF

TAF ZBAA 210920Z 2112/2212 19004MPS 6000 NSC TX33/2207Z TN25/2121Z= TAF ZBSJ 210719Z 2112/2212 18004MPS 5000 HZ NSC TX36/2207Z TN23/2121Z

Decode

Departure Runways

ID Width Length Bearing (true/mag) Surface Threshold Overrun Markings Lighting
01 195 ft / 59 m 12,481 ft / 3,804 m 353.17° / 0.23° CONCRETE 0 ft / 0 m 394 ft / 120 m PREC-APP CENTERLINE EDGE THRESHOLD MALSF
18L 197 ft / 60 m 12,493 ft / 3,808 m 173.17° / 180.22° ASPHALT 0 ft / 0 m 190 ft / 58 m PREC-APP CENTERLINE EDGE THRESHOLD MALSF
18R 164 ft / 50 m 10,512 ft / 3,204 m 173.15° / 180.20° ASPHALT 0 ft / 0 m 200 ft / 61 m PREC-APP CENTERLINE EDGE THRESHOLD MALSF
19 195 ft / 59 m 12,481 ft / 3,804 m 173.17° / 180.22° CONCRETE 0 ft / 0 m 397 ft / 121 m PREC-APP CENTERLINE EDGE THRESHOLD MALSF
36L 164 ft / 50 m 10,512 ft / 3,204 m 353.15° / 0.21° ASPHALT 0 ft / 0 m 200 ft / 61 m PREC-APP CENTERLINE EDGE THRESHOLD MALSF
36R 197 ft / 60 m 12,493 ft / 3,808 m 353.17° / 0.23° ASPHALT 0 ft / 0 m 190 ft / 58 m PREC-APP CENTERLINE EDGE THRESHOLD MALSF

ZBTJ

Details ICAO ZBTJ (TSN)
Name BINHAI
Region China
Timezone Asia/Shanghai (UTC+8.0)
Stats Elevation 10 ft / 3 m (AMSL)
Location 39.124400° 117.346000°
Runways 1
Magnetic Variation 7.048° W

METAR

ZBTJ 211500Z 22002MPS 190V250 8000 NSC 32/24 Q1002 NOSIG

Decode

TAF

TAF ZBTJ 210907Z 2112/2212 24003MPS 3000 HZ NSC TX36/2203Z TN27/2120Z

Decode

Destination Runways

ID Width Length Bearing (true/mag) Surface Threshold Overrun Markings Lighting
16 164 ft / 50 m 10,508 ft / 3,203 m 154.55° / 161.60° CONCRETE 0 ft / 0 m 197 ft / 60 m PREC-APP CENTERLINE EDGE THRESHOLD ALSF-I REIL-OMNI
34 164 ft / 50 m 10,508 ft / 3,203 m 334.56° / 341.61° CONCRETE 0 ft / 0 m 197 ft / 60 m PREC-APP CENTERLINE EDGE THRESHOLD ALSF-I REIL-OMNI

Approach Navaids

Runway Type Ident Frequency Range Bearing (true/mag) Slope Elevation
16 LOC-ILS IJS 110.90 MHz 18 nm / 33 km 154.61° / 161.66 ° - 7 ft / 2 m (AMSL)
16 OM OM - - 154.56° / 161.60 ° - 10 ft / 3 m (AMSL)
16 GS IJS 110.90 MHz 10 nm / 19 km 155.11° / 162.16 ° 3.00° 36 ft / 11 m (AMSL)
16 DME IJS 110.90 MHz 18 nm / 33 km - - 36 ft / 11 m (AMSL)
16 MM MM - - 154.56° / 161.60 ° - 10 ft / 3 m (AMSL)
34 MM MM - - 334.56° / 341.60 ° - 10 ft / 3 m (AMSL)
34 DME ICG 110.50 MHz 18 nm / 33 km - - 10 ft / 3 m (AMSL)
34 GS ICG 110.50 MHz 10 nm / 19 km 335.11° / 342.16 ° 3.00° 10 ft / 3 m (AMSL)
34 LOC-ILS ICG 110.50 MHz 18 nm / 33 km 334.37° / 341.41 ° - 7 ft / 2 m (AMSL)
34 OM OM - - 334.56° / 341.60 ° - 10 ft / 3 m (AMSL)

Popular Alternatives